Time;durP1;ratioP1;P1;durP2;ratioP2;P2;SDS_P1;SDS_P2;PMS_P1;PMS_P2;Temp;Humidity;BMP_temperature;BMP_pressure;BME280_temperature;BME280_humidity;BME280_pressure;Samples;Min_cycle;Max_cycle;Signal;HPM_P1;HPM_P2
2023/02/11 00:00:57;;;;;;;;;;;;;;;;;;5054937;28;19915;-74
2023/02/11 00:03:24;;;;;;;;;;;;;;;;;;5054966;28;19909;-74
2023/02/11 00:05:50;;;;;;;;;;;;;;;;;;5054939;28;19931;-73
2023/02/11 00:08:15;;;;;;;;;;;;;;;;;;5036974;28;20381;-74
2023/02/11 00:10:45;;;;;;;;;;;;;;;;;;5055160;28;20008;-74
2023/02/11 00:13:11;;;;;;;;;;;;;;;;;;5054779;28;19916;-74
2023/02/11 00:15:37;;;;;;;;;;;;;;;;;;5054461;28;19909;-75
2023/02/11 00:18:03;;;;;;;;;;;;;;;;;;5054412;28;19908;-76
2023/02/11 00:20:28;;;;;;;;;;;;;;;;;;5055037;28;19912;-74
2023/02/11 00:22:54;;;;;;;;;;;;;;;;;;5054532;28;20389;-73
2023/02/11 00:25:20;;;;;;;;;;;;;;;;;;5054781;28;19909;-75
2023/02/11 00:27:46;;;;;;;;;;;;;;;;;;5036602;28;19908;-74
2023/02/11 00:30:12;;;;;;;;;;;;;;;;;;5036515;28;19909;-75
2023/02/11 00:32:38;;;;;;;;;;;;;;;;;;5036521;28;19995;-75
2023/02/11 00:35:04;;;;;;;;;;;;;;;;;;5054487;28;19975;-76
2023/02/11 00:37:30;;;;;;;;;;;;;;;;;;5054104;28;19923;-75
2023/02/11 00:39:56;;;;;;;;;;;;;;;;;;5054298;28;19909;-74
2023/02/11 00:42:22;;;;;;;;;;;;;;;;;;5054566;28;19923;-75
2023/02/11 00:44:48;;;;;;;;;;;;;;;;;;5054531;28;19908;-75
2023/02/11 00:47:14;;;;;;;;;;;;;;;;;;5054422;28;19916;-75
2023/02/11 00:49:39;;;;;;;;;;;;;;;;;;5054147;28;19915;-75
2023/02/11 00:52:05;;;;;;;;;;;;;;;;;;5054096;28;19956;-74
2023/02/11 00:54:31;;;;;;;;;;;;;;;;;;5054518;28;19912;-75
2023/02/11 00:56:57;;;;;;;;;;;;;;;;;;5053913;28;19909;-75
2023/02/11 00:59:23;;;;;;;;;;;;;;;;;;5053934;28;20348;-75
2023/02/11 01:01:49;;;;;;;;;;;;;;;;;;5054001;28;20369;-73
2023/02/11 01:04:15;;;;;;;;;;;;;;;;;;5035722;28;19909;-74
2023/02/11 01:06:41;;;;;;;;;;;;;;;;;;5053827;28;19962;-75
2023/02/11 01:09:07;;;;;;;;;;;;;;;;;;5053782;28;19909;-74
2023/02/11 01:11:33;;;;;;;;;;;;;;;;;;5053761;28;19909;-76
2023/02/11 01:13:59;;;;;;;;;;;;;;;;;;5053814;28;19909;-74
2023/02/11 01:16:25;;;;;;;;;;;;;;;;;;5053663;28;19920;-74
2023/02/11 01:18:51;;;;;;;;;;;;;;;;;;5053899;28;19909;-74
2023/02/11 01:21:16;;;;;;;;;;;;;;;;;;5053615;28;20357;-74
2023/02/11 01:23:42;;;;;;;;;;;;;;;;;;5053677;28;19995;-76
2023/02/11 01:26:08;;;;;;;;;;;;;;;;;;5053613;28;19909;-74
2023/02/11 01:28:34;;;;;;;;;;;;;;;;;;5053529;28;19947;-74
2023/02/11 01:31:00;;;;;;;;;;;;;;;;;;5053814;28;20474;-74
2023/02/11 01:33:26;;;;;;;;;;;;;;;;;;5053546;28;20353;-75
2023/02/11 01:35:52;;;;;;;;;;;;;;;;;;5053548;28;19909;-74
2023/02/11 01:38:18;;;;;;;;;;;;;;;;;;5053258;28;19939;-75
2023/02/11 01:40:44;;;;;;;;;;;;;;;;;;5035546;28;19912;-74
2023/02/11 01:43:10;;;;;;;;;;;;;;;;;;5053671;28;19964;-75
2023/02/11 01:45:36;;;;;;;;;;;;;;;;;;5053402;28;19916;-75
2023/02/11 01:48:02;;;;;;;;;;;;;;;;;;5053427;28;19908;-75
2023/02/11 01:50:27;;;;;;;;;;;;;;;;;;5053402;28;19909;-75
2023/02/11 01:57:20;;;;;;;;;;;;;;;;;;5053522;28;19909;-75
2023/02/11 01:58:24;;;;;;;;;;;;;;;;;;5053082;28;20386;-75
2023/02/11 02:00:50;;;;;;;;;;;;;;;;;;5035347;28;20007;-74
2023/02/11 02:03:16;;;;;;;;;;;;;;;;;;5035336;28;19990;-74
2023/02/11 02:05:42;;;;;;;;;;;;;;;;;;5035409;28;19916;-75
2023/02/11 02:08:08;;;;;;;;;;;;;;;;;;5053213;28;19909;-74
2023/02/11 02:10:34;;;;;;;;;;;;;;;;;;5053159;28;19915;-74
2023/02/11 02:13:00;;;;;;;;;;;;;;;;;;5053332;28;19909;-75
2023/02/11 02:15:26;;;;;;;;;;;;;;;;;;5053141;28;19948;-74
2023/02/11 02:17:52;;;;;;;;;;;;;;;;;;5053137;28;20377;-73
2023/02/11 02:20:18;;;;;;;;;;;;;;;;;;5053161;28;20281;-75
2023/02/11 02:22:44;;;;;;;;;;;;;;;;;;5053409;28;20373;-74
2023/02/11 02:25:09;;;;;;;;;;;;;;;;;;5053022;28;19909;-74
2023/02/11 02:27:35;;;;;;;;;;;;;;;;;;5053091;28;19909;-74
2023/02/11 02:30:01;;;;;;;;;;;;;;;;;;5052987;28;19909;-75
2023/02/11 02:32:27;;;;;;;;;;;;;;;;;;5053186;28;19965;-74
2023/02/11 02:34:53;;;;;;;;;;;;;;;;;;5053078;28;19952;-75
2023/02/11 02:37:19;;;;;;;;;;;;;;;;;;5052810;28;20331;-74
2023/02/11 02:39:45;;;;;;;;;;;;;;;;;;5054132;28;19919;-74
2023/02/11 02:42:11;;;;;;;;;;;;;;;;;;5056911;28;19917;-75
2023/02/11 02:44:37;;;;;;;;;;;;;;;;;;5056497;28;19916;-75
2023/02/11 02:47:03;;;;;;;;;;;;;;;;;;5056407;28;19915;-74
2023/02/11 02:49:29;;;;;;;;;;;;;;;;;;5056470;28;19909;-74
2023/02/11 02:51:55;;;;;;;;;;;;;;;;;;5056339;28;19971;-75
2023/02/11 02:54:20;;;;;;;;;;;;;;;;;;5056512;28;19932;-75
2023/02/11 02:56:46;;;;;;;;;;;;;;;;;;5056174;28;20270;-75
2023/02/11 02:59:12;;;;;;;;;;;;;;;;;;5056180;28;20378;-75
2023/02/11 03:01:38;;;;;;;;;;;;;;;;;;5056300;28;19913;-74
2023/02/11 03:04:04;;;;;;;;;;;;;;;;;;5056110;28;19966;-74
2023/02/11 03:06:30;;;;;;;;;;;;;;;;;;5056097;28;20026;-76
2023/02/11 03:08:56;;;;;;;;;;;;;;;;;;5056144;28;19908;-74
2023/02/11 03:11:22;;;;;;;;;;;;;;;;;;5055975;28;19910;-74
2023/02/11 03:13:48;;;;;;;;;;;;;;;;;;5055931;28;19909;-75
2023/02/11 03:16:14;;;;;;;;;;;;;;;;;;5056064;28;19931;-75
2023/02/11 03:18:40;;;;;;;;;;;;;;;;;;5055896;28;20376;-74
2023/02/11 03:21:06;;;;;;;;;;;;;;;;;;5055867;28;19952;-75
2023/02/11 03:23:32;;;;;;;;;;;;;;;;;;5055692;28;19916;-75
2023/02/11 03:25:58;;;;;;;;;;;;;;;;;;5056232;28;19908;-75
2023/02/11 03:28:23;;;;;;;;;;;;;;;;;;5037804;28;19955;-76
2023/02/11 03:30:49;;;;;;;;;;;;;;;;;;5055690;28;20373;-76
2023/02/11 03:33:15;;;;;;;;;;;;;;;;;;5037747;28;19916;-74
2023/02/11 03:35:41;;;;;;;;;;;;;;;;;;5055526;28;19908;-73
2023/02/11 03:38:07;;;;;;;;;;;;;;;;;;5055509;28;19917;-74
2023/02/11 03:40:33;;;;;;;;;;;;;;;;;;5055867;28;19909;-74
2023/02/11 03:42:59;;;;;;;;;;;;;;;;;;5055677;28;19924;-74
2023/02/11 03:45:25;;;;;;;;;;;;;;;;;;5055347;28;19913;-75
2023/02/11 03:47:51;;;;;;;;;;;;;;;;;;5055323;28;19909;-74
2023/02/11 03:50:17;;;;;;;;;;;;;;;;;;5055064;28;19943;-74
2023/02/11 03:52:43;;;;;;;;;;;;;;;;;;5054925;28;20388;-74
2023/02/11 03:55:09;;;;;;;;;;;;;;;;;;5055211;28;19915;-74
2023/02/11 03:57:34;;;;;;;;;;;;;;;;;;5055015;28;19959;-75
2023/02/11 04:00:00;;;;;;;;;;;;;;;;;;5055080;28;19909;-75
2023/02/11 04:02:26;;;;;;;;;;;;;;;;;;5054964;28;19947;-75
2023/02/11 04:04:52;;;;;;;;;;;;;;;;;;5055396;28;20427;-75
2023/02/11 04:07:18;;;;;;;;;;;;;;;;;;5054958;28;20369;-75
2023/02/11 04:09:44;;;;;;;;;;;;;;;;;;5036924;28;19913;-74
2023/02/11 04:12:10;;;;;;;;;;;;;;;;;;5054864;28;19909;-74
2023/02/11 04:14:36;;;;;;;;;;;;;;;;;;5054829;28;20281;-74
2023/02/11 04:17:02;;;;;;;;;;;;;;;;;;5055029;28;19908;-75
2023/02/11 04:19:28;;;;;;;;;;;;;;;;;;5054722;28;20284;-76
2023/02/11 04:21:54;;;;;;;;;;;;;;;;;;5036679;28;20015;-73
2023/02/11 04:24:20;;;;;;;;;;;;;;;;;;5054592;28;19962;-74
2023/02/11 04:26:45;;;;;;;;;;;;;;;;;;5054943;28;19909;-74
2023/02/11 04:29:11;;;;;;;;;;;;;;;;;;5054491;28;19909;-74
2023/02/11 04:31:37;;;;;;;;;;;;;;;;;;5054513;28;19909;-74
2023/02/11 04:34:03;;;;;;;;;;;;;;;;;;5054382;28;19909;-74
2023/02/11 04:36:29;;;;;;;;;;;;;;;;;;5054220;28;19913;-75
2023/02/11 04:38:55;;;;;;;;;;;;;;;;;;5054178;28;20015;-75
2023/02/11 04:41:21;;;;;;;;;;;;;;;;;;5054234;28;19951;-75
2023/02/11 04:43:47;;;;;;;;;;;;;;;;;;5054439;28;19909;-74
2023/02/11 04:46:13;;;;;;;;;;;;;;;;;;5054207;28;19908;-73
2023/02/11 04:48:39;;;;;;;;;;;;;;;;;;5054148;28;19909;-75
2023/02/11 04:51:05;;;;;;;;;;;;;;;;;;5036266;28;19996;-74
2023/02/11 04:53:31;;;;;;;;;;;;;;;;;;5054103;28;19947;-74
2023/02/11 04:55:57;;;;;;;;;;;;;;;;;;5053987;28;19971;-74
2023/02/11 04:58:23;;;;;;;;;;;;;;;;;;5054419;28;20008;-75
2023/02/11 05:00:49;;;;;;;;;;;;;;;;;;5054291;28;19908;-74
2023/02/11 05:03:15;;;;;;;;;;;;;;;;;;5053548;28;19966;-74
2023/02/11 05:05:41;;;;;;;;;;;;;;;;;;5053967;28;19909;-74
2023/02/11 05:08:06;;;;;;;;;;;;;;;;;;5053862;28;19909;-74
2023/02/11 05:10:33;;;;;;;;;;;;;;;;;;5053837;28;20292;-75
2023/02/11 05:12:58;;;;;;;;;;;;;;;;;;5054043;28;20376;-75
2023/02/11 05:15:24;;;;;;;;;;;;;;;;;;5053775;28;20016;-74
2023/02/11 05:17:50;;;;;;;;;;;;;;;;;;5035870;28;19960;-75
2023/02/11 05:20:16;;;;;;;;;;;;;;;;;;5053693;28;19920;-74
2023/02/11 05:22:42;;;;;;;;;;;;;;;;;;5053773;28;19912;-75
2023/02/11 05:25:08;;;;;;;;;;;;;;;;;;5053598;28;19917;-75
2023/02/11 05:27:34;;;;;;;;;;;;;;;;;;5053596;28;19909;-74
2023/02/11 05:30:00;;;;;;;;;;;;;;;;;;5053487;28;19916;-74
2023/02/11 05:32:26;;;;;;;;;;;;;;;;;;5053721;28;19909;-75
2023/02/11 05:34:52;;;;;;;;;;;;;;;;;;5053682;28;19915;-75
2023/02/11 05:37:18;;;;;;;;;;;;;;;;;;5053286;28;19966;-74
2023/02/11 05:39:44;;;;;;;;;;;;;;;;;;5053478;28;19909;-74
2023/02/11 05:42:09;;;;;;;;;;;;;;;;;;5053393;28;19983;-74
2023/02/11 05:44:35;;;;;;;;;;;;;;;;;;5053833;28;20392;-75
2023/02/11 05:47:01;;;;;;;;;;;;;;;;;;5053582;28;20361;-74
2023/02/11 05:49:27;;;;;;;;;;;;;;;;;;5053392;28;19915;-75
2023/02/11 05:51:53;;;;;;;;;;;;;;;;;;5053348;28;20007;-75
2023/02/11 05:54:19;;;;;;;;;;;;;;;;;;5053572;28;19963;-74
2023/02/11 05:56:45;;;;;;;;;;;;;;;;;;5053541;28;19913;-74
2023/02/11 05:59:11;;;;;;;;;;;;;;;;;;5053316;28;19909;-74
2023/02/11 06:01:37;;;;;;;;;;;;;;;;;;5053318;28;20281;-75
2023/02/11 06:04:03;;;;;;;;;;;;;;;;;;5053258;28;20357;-74
2023/02/11 06:06:29;;;;;;;;;;;;;;;;;;5035424;28;19909;-75
2023/02/11 06:08:55;;;;;;;;;;;;;;;;;;5053217;28;19936;-75
2023/02/11 06:11:21;;;;;;;;;;;;;;;;;;5053243;28;19966;-75
2023/02/11 06:13:47;;;;;;;;;;;;;;;;;;5053234;28;19909;-75
2023/02/11 06:16:13;;;;;;;;;;;;;;;;;;5056805;28;19974;-75
2023/02/11 06:18:38;;;;;;;;;;;;;;;;;;5056979;28;20323;-74
2023/02/11 06:21:04;;;;;;;;;;;;;;;;;;5057172;28;20378;-75
2023/02/11 06:23:30;;;;;;;;;;;;;;;;;;5056841;28;19913;-75
2023/02/11 06:25:56;;;;;;;;;;;;;;;;;;5056857;28;19909;-74
2023/02/11 06:28:22;;;;;;;;;;;;;;;;;;5056830;28;19916;-75
2023/02/11 06:30:48;;;;;;;;;;;;;;;;;;5056946;28;19916;-76
2023/02/11 06:33:14;;;;;;;;;;;;;;;;;;5056726;28;19909;-75
2023/02/11 06:35:40;;;;;;;;;;;;;;;;;;5056683;28;19970;-74
2023/02/11 06:38:06;;;;;;;;;;;;;;;;;;5056458;28;19924;-75
2023/02/11 06:40:32;;;;;;;;;;;;;;;;;;5056677;28;19942;-75
2023/02/11 06:42:58;;;;;;;;;;;;;;;;;;5056461;28;20373;-74
2023/02/11 06:45:24;;;;;;;;;;;;;;;;;;5056969;28;19909;-76
2023/02/11 06:47:49;;;;;;;;;;;;;;;;;;5056503;28;19909;-75
2023/02/11 06:50:15;;;;;;;;;;;;;;;;;;5056672;28;19927;-75
2023/02/11 06:52:41;;;;;;;;;;;;;;;;;;5056375;28;19979;-75
2023/02/11 06:55:07;;;;;;;;;;;;;;;;;;5056329;28;19956;-75
2023/02/11 06:57:33;;;;;;;;;;;;;;;;;;5056644;28;20270;-73
2023/02/11 06:59:59;;;;;;;;;;;;;;;;;;5056585;28;19996;-74
2023/02/11 07:02:25;;;;;;;;;;;;;;;;;;5038272;28;19917;-76
2023/02/11 07:04:51;;;;;;;;;;;;;;;;;;5056272;28;19916;-74
2023/02/11 07:07:17;;;;;;;;;;;;;;;;;;5038221;28;19909;-75
2023/02/11 07:09:43;;;;;;;;;;;;;;;;;;5056256;28;19913;-75
2023/02/11 07:12:09;;;;;;;;;;;;;;;;;;5056192;28;20002;-74
2023/02/11 07:14:35;;;;;;;;;;;;;;;;;;5055966;28;19916;-74
2023/02/11 07:17:02;;;;;;;;;;;;;;;;;;5038065;28;20483;-75
2023/02/11 07:19:28;;;;;;;;;;;;;;;;;;5055962;28;20000;-75
2023/02/11 07:21:54;;;;;;;;;;;;;;;;;;5055783;28;20510;-75
2023/02/11 07:24:20;;;;;;;;;;;;;;;;;;5056293;28;19999;-76
2023/02/11 07:26:46;;;;;;;;;;;;;;;;;;5037641;28;19952;-75
2023/02/11 07:29:12;;;;;;;;;;;;;;;;;;5055668;28;19909;-75
2023/02/11 07:31:38;;;;;;;;;;;;;;;;;;5055599;28;19915;-76
2023/02/11 07:34:04;;;;;;;;;;;;;;;;;;5055526;28;19999;-74
2023/02/11 07:36:30;;;;;;;;;;;;;;;;;;5055557;28;19959;-75
2023/02/11 07:38:56;;;;;;;;;;;;;;;;;;5055148;28;19924;-76
2023/02/11 07:41:22;;;;;;;;;;;;;;;;;;5055600;28;20285;-75
2023/02/11 07:43:48;;;;;;;;;;;;;;;;;;5055459;28;20377;-75
2023/02/11 07:46:14;;;;;;;;;;;;;;;;;;5055384;28;19916;-74
2023/02/11 07:48:40;;;;;;;;;;;;;;;;;;5055601;28;20280;-74
2023/02/11 07:51:06;;;;;;;;;;;;;;;;;;5037320;28;20377;-74
2023/02/11 07:53:32;;;;;;;;;;;;;;;;;;5055248;28;19909;-75
2023/02/11 07:55:58;;;;;;;;;;;;;;;;;;5054971;28;20325;-74
2023/02/11 07:58:24;;;;;;;;;;;;;;;;;;5055119;28;20423;-74
2023/02/11 08:00:50;;;;;;;;;;;;;;;;;;5055367;28;19909;-75
2023/02/11 08:03:16;;;;;;;;;;;;;;;;;;5037074;28;19962;-75
2023/02/11 08:05:42;;;;;;;;;;;;;;;;;;5055015;28;19915;-74
2023/02/11 08:08:08;;;;;;;;;;;;;;;;;;5054935;28;20011;-75
2023/02/11 08:10:34;;;;;;;;;;;;;;;;;;5055125;28;19956;-75
2023/02/11 08:13:00;;;;;;;;;;;;;;;;;;5054837;28;19912;-75
2023/02/11 08:15:26;;;;;;;;;;;;;;;;;;5054771;28;19992;-74
2023/02/11 08:17:52;;;;;;;;;;;;;;;;;;5054989;28;19909;-75
2023/02/11 08:20:18;;;;;;;;;;;;;;;;;;5036836;28;19908;-76
2023/02/11 08:22:44;;;;;;;;;;;;;;;;;;5054573;28;19920;-74
2023/02/11 08:25:10;;;;;;;;;;;;;;;;;;5054599;28;19909;-75
2023/02/11 08:27:35;;;;;;;;;;;;;;;;;;5036703;28;19909;-75
2023/02/11 08:30:01;;;;;;;;;;;;;;;;;;5054650;28;20384;-76
2023/02/11 08:32:27;;;;;;;;;;;;;;;;;;5054682;28;19937;-76
2023/02/11 08:34:53;;;;;;;;;;;;;;;;;;5036487;28;19964;-75
2023/02/11 08:37:21;;;;;;;;;;;;;;;;;;5053063;28;19920;-75
2023/02/11 08:39:47;;;;;;;;;;;;;;;;;;5036430;28;20293;-75
2023/02/11 08:42:14;;;;;;;;;;;;;;;;;;5054308;28;19920;-75
2023/02/11 08:44:40;;;;;;;;;;;;;;;;;;5054309;28;20401;-75
2023/02/11 08:47:06;;;;;;;;;;;;;;;;;;5054534;28;19909;-76
2023/02/11 08:49:32;;;;;;;;;;;;;;;;;;5054503;28;19916;-75
2023/02/11 08:52:02;;;;;;;;;;;;;;;;;;5054091;28;19909;-76
2023/02/11 08:54:28;;;;;;;;;;;;;;;;;;5054247;28;19909;-75
2023/02/11 08:56:54;;;;;;;;;;;;;;;;;;5054038;28;20391;-75
2023/02/11 08:59:20;;;;;;;;;;;;;;;;;;5053989;28;20063;-75
2023/02/11 09:01:46;;;;;;;;;;;;;;;;;;5054049;28;19935;-75
2023/02/11 09:04:12;;;;;;;;;;;;;;;;;;5053906;28;20396;-75
2023/02/11 09:06:38;;;;;;;;;;;;;;;;;;5053893;28;19909;-75
2023/02/11 09:09:04;;;;;;;;;;;;;;;;;;5053839;28;19908;-74
2023/02/11 09:11:30;;;;;;;;;;;;;;;;;;5053931;28;19908;-75
2023/02/11 09:13:56;;;;;;;;;;;;;;;;;;5035942;28;19951;-74
2023/02/11 09:16:22;;;;;;;;;;;;;;;;;;5035811;28;19909;-76
2023/02/11 09:18:47;;;;;;;;;;;;;;;;;;5035831;28;19908;-74
2023/02/11 09:21:13;;;;;;;;;;;;;;;;;;5053604;28;19913;-75
2023/02/11 09:23:42;;;;;;;;;;;;;;;;;;5035770;28;19916;-75
2023/02/11 09:26:09;;;;;;;;;;;;;;;;;;5053511;28;19916;-76
2023/02/11 09:28:35;;;;;;;;;;;;;;;;;;5053598;28;19913;-75
2023/02/11 09:31:01;;;;;;;;;;;;;;;;;;5053678;28;19964;-75
2023/02/11 09:33:27;;;;;;;;;;;;;;;;;;5053564;28;19909;-75
2023/02/11 09:35:53;;;;;;;;;;;;;;;;;;5025727;28;19921;-75
2023/02/11 09:38:19;;;;;;;;;;;;;;;;;;5059899;28;19939;-76
2023/02/11 09:40:45;;;;;;;;;;;;;;;;;;5073590;28;20345;-75
2023/02/11 09:43:11;;;;;;;;;;;;;;;;;;5073600;28;19923;-75
2023/02/11 09:45:37;;;;;;;;;;;;;;;;;;5055440;28;20007;-74
2023/02/11 09:48:03;;;;;;;;;;;;;;;;;;5073700;28;19908;-75
2023/02/11 09:50:29;;;;;;;;;;;;;;;;;;5076550;28;19908;-75
2023/02/11 09:52:55;;;;;;;;;;;;;;;;;;5077706;28;19919;-75
2023/02/11 09:55:21;;;;;;;;;;;;;;;;;;5077304;28;19908;-74
2023/02/11 09:57:47;;;;;;;;;;;;;;;;;;5077596;28;19915;-75
2023/02/11 10:00:12;;;;;;;;;;;;;;;;;;5077598;28;19909;-75
2023/02/11 10:02:39;;;;;;;;;;;;;;;;;;5077429;28;20404;-74
2023/02/11 10:05:04;;;;;;;;;;;;;;;;;;5077708;28;19962;-75
2023/02/11 10:07:30;;;;;;;;;;;;;;;;;;5096244;28;20275;-75
2023/02/11 10:09:56;;;;;;;;;;;;;;;;;;5097544;28;20441;-74
2023/02/11 10:12:22;;;;;;;;;;;;;;;;;;5097757;28;20257;-74
2023/02/11 10:14:48;;;;;;;;;;;;;;;;;;5097443;28;19952;-75
2023/02/11 10:17:14;;;;;;;;;;;;;;;;;;5096985;28;19961;-76
2023/02/11 10:19:40;;;;;;;;;;;;;;;;;;5097782;28;19908;-75
2023/02/11 10:22:06;;;;;;;;;;;;;;;;;;5097441;28;19912;-75
2023/02/11 10:24:32;;;;;;;;;;;;;;;;;;5097480;28;19931;-75
2023/02/11 10:26:58;;;;;;;;;;;;;;;;;;5096595;28;19908;-75
2023/02/11 10:29:24;;;;;;;;;;;;;;;;;;5097469;28;19961;-75
2023/02/11 10:31:50;;;;;;;;;;;;;;;;;;5097399;28;19991;-74
2023/02/11 10:34:16;;;;;;;;;;;;;;;;;;5097112;28;19951;-75
2023/02/11 10:36:42;;;;;;;;;;;;;;;;;;5085936;28;19930;-75
2023/02/11 10:39:08;;;;;;;;;;;;;;;;;;5067092;28;19920;-75
2023/02/11 10:41:34;;;;;;;;;;;;;;;;;;5076517;28;20290;-74
2023/02/11 10:43:59;;;;;;;;;;;;;;;;;;5077060;28;20390;-76
2023/02/11 10:46:25;;;;;;;;;;;;;;;;;;5058328;28;20414;-74
2023/02/11 10:48:52;;;;;;;;;;;;;;;;;;5076852;28;19909;-74
2023/02/11 10:51:18;;;;;;;;;;;;;;;;;;5076295;28;19915;-75
2023/02/11 10:53:44;;;;;;;;;;;;;;;;;;5076453;28;19916;-75
2023/02/11 10:56:10;;;;;;;;;;;;;;;;;;5058065;28;19908;-76
2023/02/11 10:58:36;;;;;;;;;;;;;;;;;;5058577;28;19958;-75
2023/02/11 11:01:02;;;;;;;;;;;;;;;;;;5075753;28;19909;-75
2023/02/11 11:03:28;;;;;;;;;;;;;;;;;;5087130;28;19916;-75
2023/02/11 11:05:54;;;;;;;;;;;;;;;;;;5096450;28;20325;-76
2023/02/11 11:08:20;;;;;;;;;;;;;;;;;;5096490;28;20343;-75
2023/02/11 11:10:46;;;;;;;;;;;;;;;;;;5078167;28;19955;-74
2023/02/11 11:13:12;;;;;;;;;;;;;;;;;;5096295;28;19908;-75
2023/02/11 11:15:38;;;;;;;;;;;;;;;;;;5096193;28;19994;-73
2023/02/11 11:18:04;;;;;;;;;;;;;;;;;;5077977;28;19944;-76
2023/02/11 11:20:35;;;;;;;;;;;;;;;;;;5096154;28;19912;-75
2023/02/11 11:23:00;;;;;;;;;;;;;;;;;;5077917;28;19915;-75
2023/02/11 11:25:26;;;;;;;;;;;;;;;;;;5095978;28;19958;-75
2023/02/11 11:27:52;;;;;;;;;;;;;;;;;;5096250;28;20310;-74
2023/02/11 11:30:18;;;;;;;;;;;;;;;;;;5095945;28;19958;-74
2023/02/11 11:32:44;;;;;;;;;;;;;;;;;;5096303;28;19953;-74
2023/02/11 11:35:14;;;;;;;;;;;;;;;;;;5095813;28;19957;-74
2023/02/11 11:37:39;;;;;;;;;;;;;;;;;;5073891;28;19966;-74
2023/02/11 11:40:05;;;;;;;;;;;;;;;;;;5074693;28;19912;-75
2023/02/11 11:42:31;;;;;;;;;;;;;;;;;;5075432;28;19938;-74
2023/02/11 11:44:57;;;;;;;;;;;;;;;;;;5075512;28;20380;-75
2023/02/11 11:47:23;;;;;;;;;;;;;;;;;;5075714;28;20361;-74
2023/02/11 11:49:49;;;;;;;;;;;;;;;;;;5075361;28;19909;-75
2023/02/11 11:52:15;;;;;;;;;;;;;;;;;;5075268;28;19916;-76
2023/02/11 11:54:41;;;;;;;;;;;;;;;;;;5073598;28;20003;-75
2023/02/11 11:57:07;;;;;;;;;;;;;;;;;;5073546;28;19916;-76
2023/02/11 11:59:33;;;;;;;;;;;;;;;;;;5073579;28;19966;-75
2023/02/11 12:01:59;;;;;;;;;;;;;;;;;;5073432;28;19920;-74
2023/02/11 12:04:25;;;;;;;;;;;;;;;;;;5071807;28;19942;-75
2023/02/11 12:06:51;;;;;;;;;;;;;;;;;;5073359;28;19962;-75
2023/02/11 12:09:17;;;;;;;;;;;;;;;;;;5074753;28;19912;-76
2023/02/11 12:11:43;;;;;;;;;;;;;;;;;;5074348;28;19958;-75
2023/02/11 12:14:09;;;;;;;;;;;;;;;;;;5074660;28;19914;-75
2023/02/11 12:16:35;;;;;;;;;;;;;;;;;;5074756;28;20058;-75
2023/02/11 12:19:00;;;;;;;;;;;;;;;;;;5075172;28;19908;-74
2023/02/11 12:21:28;;;;;;;;;;;;;;;;;;5074817;28;20284;-74
2023/02/11 12:23:54;;;;;;;;;;;;;;;;;;5074687;28;19915;-75
2023/02/11 12:26:20;;;;;;;;;;;;;;;;;;5075224;28;19909;-75
2023/02/11 12:28:46;;;;;;;;;;;;;;;;;;5074580;28;19912;-75
2023/02/11 12:31:12;;;;;;;;;;;;;;;;;;5074557;28;19908;-75
2023/02/11 12:33:38;;;;;;;;;;;;;;;;;;5074505;28;19979;-76
2023/02/11 12:36:03;;;;;;;;;;;;;;;;;;5074482;28;19908;-75
2023/02/11 12:38:29;;;;;;;;;;;;;;;;;;5088914;28;19917;-75
2023/02/11 12:40:55;;;;;;;;;;;;;;;;;;5095033;28;19912;-74
2023/02/11 12:43:21;;;;;;;;;;;;;;;;;;5094498;28;19961;-75
2023/02/11 12:45:47;;;;;;;;;;;;;;;;;;5094505;28;19908;-75
2023/02/11 12:48:13;;;;;;;;;;;;;;;;;;5094517;28;19914;-76
2023/02/11 12:50:39;;;;;;;;;;;;;;;;;;5094460;28;20320;-75
2023/02/11 12:53:05;;;;;;;;;;;;;;;;;;5094809;28;20404;-76
2023/02/11 12:55:31;;;;;;;;;;;;;;;;;;5094318;28;20291;-75
2023/02/11 12:57:58;;;;;;;;;;;;;;;;;;5094316;28;19908;-74
2023/02/11 13:00:24;;;;;;;;;;;;;;;;;;5094294;28;19908;-75
2023/02/11 13:02:51;;;;;;;;;;;;;;;;;;5094322;28;19935;-75
2023/02/11 13:05:16;;;;;;;;;;;;;;;;;;5094188;28;20024;-75
2023/02/11 13:07:42;;;;;;;;;;;;;;;;;;5075937;28;20376;-75
2023/02/11 13:10:08;;;;;;;;;;;;;;;;;;5094150;28;19953;-75
2023/02/11 13:15:19;;;;;;;;;;;;;;;;;;5093786;28;19981;-74
2023/02/11 13:17:45;;;;;;;;;;;;;;;;;;5093969;28;19948;-73
2023/02/11 13:20:11;;;;;;;;;;;;;;;;;;5093988;28;19958;-74
2023/02/11 13:22:37;;;;;;;;;;;;;;;;;;5093837;28;19912;-75
2023/02/11 13:25:04;;;;;;;;;;;;;;;;;;5093679;28;19912;-75
2023/02/11 13:27:30;;;;;;;;;;;;;;;;;;5075753;28;19958;-74
2023/02/11 13:29:57;;;;;;;;;;;;;;;;;;5093958;28;19908;-75
2023/02/11 13:32:23;;;;;;;;;;;;;;;;;;5093877;28;19908;-76
2023/02/11 13:34:49;;;;;;;;;;;;;;;;;;5093717;28;20260;-74
2023/02/11 13:37:15;;;;;;;;;;;;;;;;;;5093967;28;20376;-74
2023/02/11 13:39:41;;;;;;;;;;;;;;;;;;5094164;28;19970;-74
2023/02/11 13:42:06;;;;;;;;;;;;;;;;;;5093962;28;19916;-73
2023/02/11 13:44:32;;;;;;;;;;;;;;;;;;5093713;28;19908;-74
2023/02/11 13:46:58;;;;;;;;;;;;;;;;;;5093725;28;19915;-74
2023/02/11 13:49:24;;;;;;;;;;;;;;;;;;5075568;28;19908;-74
2023/02/11 13:51:50;;;;;;;;;;;;;;;;;;5093621;28;19915;-73
2023/02/11 13:54:16;;;;;;;;;;;;;;;;;;5093620;28;19916;-75
2023/02/11 13:56:45;;;;;;;;;;;;;;;;;;5093739;28;20331;-75
2023/02/11 13:59:10;;;;;;;;;;;;;;;;;;5075481;28;19908;-75
2023/02/11 14:01:36;;;;;;;;;;;;;;;;;;5093497;28;20008;-74
2023/02/11 14:09:39;;;;;;;;;;;;;;;;;;5077142;28;19915;-75
2023/02/11 14:12:05;;;;;;;;;;;;;;;;;;5093447;28;20006;-74
2023/02/11 14:14:32;;;;;;;;;;;;;;;;;;5093733;28;19911;-73
2023/02/11 14:16:58;;;;;;;;;;;;;;;;;;5093400;28;19908;-72
2023/02/11 14:19:24;;;;;;;;;;;;;;;;;;5093471;28;19908;-74
2023/02/11 14:21:50;;;;;;;;;;;;;;;;;;5093297;28;19935;-73
2023/02/11 14:24:16;;;;;;;;;;;;;;;;;;5093381;28;20368;-73
2023/02/11 14:26:42;;;;;;;;;;;;;;;;;;5093341;28;20348;-73
2023/02/11 14:29:08;;;;;;;;;;;;;;;;;;5093541;28;19908;-75
2023/02/11 14:31:34;;;;;;;;;;;;;;;;;;5093404;28;20049;-73
2023/02/11 14:34:00;;;;;;;;;;;;;;;;;;5093274;28;19961;-73
2023/02/11 14:36:26;;;;;;;;;;;;;;;;;;5095802;28;19962;-73
2023/02/11 14:38:51;;;;;;;;;;;;;;;;;;5096608;28;19917;-74
2023/02/11 14:41:17;;;;;;;;;;;;;;;;;;5096939;28;19916;-74
2023/02/11 14:43:44;;;;;;;;;;;;;;;;;;5096873;28;19916;-74
2023/02/11 14:46:10;;;;;;;;;;;;;;;;;;5096821;28;20265;-74
2023/02/11 14:48:36;;;;;;;;;;;;;;;;;;5097244;28;19915;-75
2023/02/11 14:51:02;;;;;;;;;;;;;;;;;;5096786;28;20283;-74
2023/02/11 14:53:28;;;;;;;;;;;;;;;;;;5096940;28;19915;-74
2023/02/11 14:55:54;;;;;;;;;;;;;;;;;;5096732;28;20364;-74
2023/02/11 14:58:20;;;;;;;;;;;;;;;;;;5096589;28;19915;-74
2023/02/11 15:00:46;;;;;;;;;;;;;;;;;;5096997;28;19910;-74
2023/02/11 15:03:13;;;;;;;;;;;;;;;;;;5096803;28;20427;-73
2023/02/11 15:05:39;;;;;;;;;;;;;;;;;;5096462;28;19968;-72
2023/02/11 15:08:05;;;;;;;;;;;;;;;;;;5096424;28;19908;-73
2023/02/11 15:10:31;;;;;;;;;;;;;;;;;;5096336;28;20441;-73
2023/02/11 15:12:57;;;;;;;;;;;;;;;;;;5096639;28;20310;-74
2023/02/11 15:15:23;;;;;;;;;;;;;;;;;;5096327;28;20011;-73
2023/02/11 15:17:48;;;;;;;;;;;;;;;;;;5096315;28;19916;-73
2023/02/11 15:20:14;;;;;;;;;;;;;;;;;;5096229;28;19908;-74
2023/02/11 15:22:40;;;;;;;;;;;;;;;;;;5096113;28;20437;-74
2023/02/11 15:25:07;;;;;;;;;;;;;;;;;;5096059;28;19961;-74
2023/02/11 15:27:33;;;;;;;;;;;;;;;;;;5096040;28;19953;-74
2023/02/11 15:29:58;;;;;;;;;;;;;;;;;;5095971;28;19908;-74
2023/02/11 15:32:24;;;;;;;;;;;;;;;;;;5077775;28;19969;-74
2023/02/11 15:34:50;;;;;;;;;;;;;;;;;;5095959;28;20321;-74
2023/02/11 15:37:16;;;;;;;;;;;;;;;;;;5095661;28;19920;-74
2023/02/11 15:39:42;;;;;;;;;;;;;;;;;;5096213;28;20288;-73
2023/02/11 15:42:08;;;;;;;;;;;;;;;;;;5095824;28;19917;-74
2023/02/11 15:44:36;;;;;;;;;;;;;;;;;;5077513;28;20019;-73
2023/02/11 15:47:02;;;;;;;;;;;;;;;;;;5095590;28;19989;-73
2023/02/11 15:49:28;;;;;;;;;;;;;;;;;;5095597;28;19908;-73
2023/02/11 15:51:54;;;;;;;;;;;;;;;;;;5077428;28;20437;-73
2023/02/11 15:54:20;;;;;;;;;;;;;;;;;;5095514;28;19908;-73
2023/02/11 15:56:46;;;;;;;;;;;;;;;;;;5077301;28;20387;-74
2023/02/11 15:59:12;;;;;;;;;;;;;;;;;;5095799;28;20011;-73
2023/02/11 16:01:38;;;;;;;;;;;;;;;;;;5095512;28;19947;-73
2023/02/11 16:04:04;;;;;;;;;;;;;;;;;;5095281;28;19916;-72
2023/02/11 16:06:30;;;;;;;;;;;;;;;;;;5095265;28;19915;-73
2023/02/11 16:08:56;;;;;;;;;;;;;;;;;;5076997;28;19908;-73
2023/02/11 16:11:22;;;;;;;;;;;;;;;;;;5095150;28;19908;-73
2023/02/11 16:13:48;;;;;;;;;;;;;;;;;;5095210;28;20389;-72
2023/02/11 16:16:14;;;;;;;;;;;;;;;;;;5095139;28;20288;-73
2023/02/11 16:18:40;;;;;;;;;;;;;;;;;;5095031;28;20390;-73
2023/02/11 16:21:06;;;;;;;;;;;;;;;;;;5095406;28;19919;-73
2023/02/11 16:23:32;;;;;;;;;;;;;;;;;;5095135;28;19916;-73
2023/02/11 16:25:58;;;;;;;;;;;;;;;;;;5095032;28;19915;-73
2023/02/11 16:28:24;;;;;;;;;;;;;;;;;;5094884;28;19908;-72
2023/02/11 16:30:49;;;;;;;;;;;;;;;;;;5094754;28;19996;-72
2023/02/11 16:33:15;;;;;;;;;;;;;;;;;;5094897;28;19912;-73
2023/02/11 16:35:46;;;;;;;;;;;;;;;;;;5094692;28;20318;-73
2023/02/11 16:38:12;;;;;;;;;;;;;;;;;;5094405;28;19923;-73
2023/02/11 16:40:38;;;;;;;;;;;;;;;;;;5094634;28;19965;-74
2023/02/11 16:43:06;;;;;;;;;;;;;;;;;;5094030;28;20201;-72
2023/02/11 16:45:32;;;;;;;;;;;;;;;;;;5094756;28;19914;-73
2023/02/11 16:47:58;;;;;;;;;;;;;;;;;;5094506;28;19951;-74